sensor_id;sensor_type;location;lat;lon;timestamp;P1;durP1;ratioP1;P2;durP2;ratioP2
44366;SDS011;30086;57.660;12.000;2022-12-18T00:00:09;75.53;;;37.28;;
44366;SDS011;30086;57.660;12.000;2022-12-18T00:02:36;77.72;;;35.08;;
44366;SDS011;30086;57.660;12.000;2022-12-18T00:05:02;89.82;;;42.13;;
44366;SDS011;30086;57.660;12.000;2022-12-18T00:07:28;91.22;;;35.58;;
44366;SDS011;30086;57.660;12.000;2022-12-18T00:09:54;91.57;;;34.53;;
44366;SDS011;30086;57.660;12.000;2022-12-18T00:12:20;84.25;;;29.60;;
44366;SDS011;30086;57.660;12.000;2022-12-18T00:14:46;99.10;;;34.35;;
44366;SDS011;30086;57.660;12.000;2022-12-18T00:17:12;104.85;;;34.67;;
44366;SDS011;30086;57.660;12.000;2022-12-18T00:19:38;96.82;;;32.60;;
44366;SDS011;30086;57.660;12.000;2022-12-18T00:22:04;107.90;;;33.38;;
44366;SDS011;30086;57.660;12.000;2022-12-18T00:24:31;89.93;;;35.92;;
44366;SDS011;30086;57.660;12.000;2022-12-18T00:26:57;95.88;;;32.05;;
44366;SDS011;30086;57.660;12.000;2022-12-18T00:29:23;92.22;;;32.55;;
44366;SDS011;30086;57.660;12.000;2022-12-18T00:31:49;91.10;;;31.92;;
44366;SDS011;30086;57.660;12.000;2022-12-18T00:34:15;112.45;;;31.20;;
44366;SDS011;30086;57.660;12.000;2022-12-18T00:36:41;1.08;;;1.02;;
44366;SDS011;30086;57.660;12.000;2022-12-18T00:39:07;0.00;;;0.00;;
44366;SDS011;30086;57.660;12.000;2022-12-18T00:41:34;0.00;;;0.00;;
44366;SDS011;30086;57.660;12.000;2022-12-18T00:44:18;0.03;;;0.03;;
44366;SDS011;30086;57.660;12.000;2022-12-18T00:46:45;0.00;;;0.00;;
44366;SDS011;30086;57.660;12.000;2022-12-18T00:49:11;0.22;;;0.22;;
44366;SDS011;30086;57.660;12.000;2022-12-18T00:51:37;0.10;;;0.10;;
44366;SDS011;30086;57.660;12.000;2022-12-18T00:54:04;0.00;;;0.00;;
44366;SDS011;30086;57.660;12.000;2022-12-18T00:56:30;0.00;;;0.00;;
44366;SDS011;30086;57.660;12.000;2022-12-18T00:58:56;0.00;;;0.00;;
44366;SDS011;30086;57.660;12.000;2022-12-18T01:01:22;0.00;;;0.00;;
44366;SDS011;30086;57.660;12.000;2022-12-18T01:03:48;0.05;;;0.05;;
44366;SDS011;30086;57.660;12.000;2022-12-18T01:06:14;0.00;;;0.00;;
44366;SDS011;30086;57.660;12.000;2022-12-18T01:08:41;3.20;;;0.70;;
44366;SDS011;30086;57.660;12.000;2022-12-18T01:11:08;52.63;;;21.27;;
44366;SDS011;30086;57.660;12.000;2022-12-18T01:13:35;0.10;;;0.10;;
44366;SDS011;30086;57.660;12.000;2022-12-18T01:16:03;0.00;;;0.00;;
44366;SDS011;30086;57.660;12.000;2022-12-18T01:18:29;0.15;;;0.15;;
44366;SDS011;30086;57.660;12.000;2022-12-18T01:20:55;0.00;;;0.00;;
44366;SDS011;30086;57.660;12.000;2022-12-18T01:23:21;0.00;;;0.00;;
44366;SDS011;30086;57.660;12.000;2022-12-18T01:25:48;0.00;;;0.00;;
44366;SDS011;30086;57.660;12.000;2022-12-18T01:28:14;0.22;;;0.22;;
44366;SDS011;30086;57.660;12.000;2022-12-18T01:30:40;0.00;;;0.00;;
44366;SDS011;30086;57.660;12.000;2022-12-18T01:33:06;0.00;;;0.00;;
44366;SDS011;30086;57.660;12.000;2022-12-18T01:35:32;0.20;;;0.20;;
44366;SDS011;30086;57.660;12.000;2022-12-18T01:37:58;0.00;;;0.00;;
44366;SDS011;30086;57.660;12.000;2022-12-18T01:40:26;0.10;;;0.10;;
44366;SDS011;30086;57.660;12.000;2022-12-18T01:42:53;0.15;;;0.15;;
44366;SDS011;30086;57.660;12.000;2022-12-18T01:45:23;0.00;;;0.00;;
44366;SDS011;30086;57.660;12.000;2022-12-18T01:47:54;0.00;;;0.00;;
44366;SDS011;30086;57.660;12.000;2022-12-18T01:50:29;0.00;;;0.00;;
44366;SDS011;30086;57.660;12.000;2022-12-18T01:52:58;0.00;;;0.00;;
44366;SDS011;30086;57.660;12.000;2022-12-18T01:55:25;0.28;;;0.28;;
44366;SDS011;30086;57.660;12.000;2022-12-18T01:57:52;0.00;;;0.00;;
44366;SDS011;30086;57.660;12.000;2022-12-18T02:00:20;0.08;;;0.08;;
44366;SDS011;30086;57.660;12.000;2022-12-18T02:02:47;0.00;;;0.00;;
44366;SDS011;30086;57.660;12.000;2022-12-18T02:05:18;0.00;;;0.00;;
44366;SDS011;30086;57.660;12.000;2022-12-18T02:10:20;0.00;;;0.00;;
44366;SDS011;30086;57.660;12.000;2022-12-18T02:12:53;0.30;;;0.30;;
44366;SDS011;30086;57.660;12.000;2022-12-18T02:15:25;0.00;;;0.00;;
44366;SDS011;30086;57.660;12.000;2022-12-18T02:17:55;0.00;;;0.00;;
44366;SDS011;30086;57.660;12.000;2022-12-18T02:20:32;4.50;;;0.88;;
44366;SDS011;30086;57.660;12.000;2022-12-18T02:28:23;0.00;;;0.00;;
44366;SDS011;30086;57.660;12.000;2022-12-18T02:30:51;0.00;;;0.00;;
44366;SDS011;30086;57.660;12.000;2022-12-18T02:33:19;78.78;;;41.85;;
44366;SDS011;30086;57.660;12.000;2022-12-18T02:35:46;79.78;;;39.55;;
44366;SDS011;30086;57.660;12.000;2022-12-18T02:38:13;81.15;;;26.60;;
44366;SDS011;30086;57.660;12.000;2022-12-18T02:40:40;77.20;;;31.92;;
44366;SDS011;30086;57.660;12.000;2022-12-18T02:43:11;72.22;;;26.95;;
44366;SDS011;30086;57.660;12.000;2022-12-18T02:45:57;88.55;;;26.05;;
44366;SDS011;30086;57.660;12.000;2022-12-18T02:48:25;81.75;;;33.72;;
44366;SDS011;30086;57.660;12.000;2022-12-18T02:53:40;85.93;;;61.38;;
44366;SDS011;30086;57.660;12.000;2022-12-18T02:56:10;76.30;;;22.77;;
44366;SDS011;30086;57.660;12.000;2022-12-18T03:01:19;83.25;;;24.70;;
44366;SDS011;30086;57.660;12.000;2022-12-18T03:04:49;62.08;;;38.60;;
44366;SDS011;30086;57.660;12.000;2022-12-18T03:06:45;145.73;;;132.15;;
44366;SDS011;30086;57.660;12.000;2022-12-18T03:09:15;54.03;;;14.85;;
44366;SDS011;30086;57.660;12.000;2022-12-18T03:11:44;66.03;;;25.60;;
44366;SDS011;30086;57.660;12.000;2022-12-18T03:14:30;53.00;;;22.92;;
44366;SDS011;30086;57.660;12.000;2022-12-18T03:16:59;79.28;;;23.50;;
44366;SDS011;30086;57.660;12.000;2022-12-18T03:19:27;73.75;;;32.30;;
44366;SDS011;30086;57.660;12.000;2022-12-18T03:21:55;71.47;;;41.08;;
44366;SDS011;30086;57.660;12.000;2022-12-18T03:24:21;65.85;;;21.77;;
44366;SDS011;30086;57.660;12.000;2022-12-18T03:26:50;82.90;;;59.83;;
44366;SDS011;30086;57.660;12.000;2022-12-18T03:29:17;79.32;;;59.95;;
44366;SDS011;30086;57.660;12.000;2022-12-18T03:31:45;65.63;;;35.05;;
44366;SDS011;30086;57.660;12.000;2022-12-18T03:34:15;69.05;;;42.60;;
44366;SDS011;30086;57.660;12.000;2022-12-18T03:36:43;73.97;;;39.38;;
44366;SDS011;30086;57.660;12.000;2022-12-18T03:39:09;68.80;;;53.35;;
44366;SDS011;30086;57.660;12.000;2022-12-18T03:44:42;48.25;;;12.73;;
44366;SDS011;30086;57.660;12.000;2022-12-18T03:49:38;64.20;;;20.17;;
44366;SDS011;30086;57.660;12.000;2022-12-18T03:52:10;51.67;;;13.23;;
44366;SDS011;30086;57.660;12.000;2022-12-18T03:54:37;70.00;;;23.42;;
44366;SDS011;30086;57.660;12.000;2022-12-18T03:57:05;65.57;;;22.48;;
44366;SDS011;30086;57.660;12.000;2022-12-18T03:59:33;84.15;;;58.42;;
44366;SDS011;30086;57.660;12.000;2022-12-18T04:02:00;75.13;;;33.92;;
44366;SDS011;30086;57.660;12.000;2022-12-18T04:04:27;77.80;;;21.10;;
44366;SDS011;30086;57.660;12.000;2022-12-18T04:06:54;70.28;;;16.45;;
44366;SDS011;30086;57.660;12.000;2022-12-18T04:09:20;67.55;;;24.27;;
44366;SDS011;30086;57.660;12.000;2022-12-18T04:11:47;85.45;;;27.10;;
44366;SDS011;30086;57.660;12.000;2022-12-18T04:14:13;80.45;;;52.20;;
44366;SDS011;30086;57.660;12.000;2022-12-18T04:16:39;81.90;;;23.60;;
44366;SDS011;30086;57.660;12.000;2022-12-18T04:19:05;58.40;;;25.67;;
44366;SDS011;30086;57.660;12.000;2022-12-18T04:21:31;69.30;;;31.20;;
44366;SDS011;30086;57.660;12.000;2022-12-18T04:23:57;81.88;;;60.70;;
44366;SDS011;30086;57.660;12.000;2022-12-18T04:26:23;68.70;;;20.08;;
44366;SDS011;30086;57.660;12.000;2022-12-18T04:28:49;69.50;;;27.30;;
44366;SDS011;30086;57.660;12.000;2022-12-18T04:31:15;68.13;;;24.45;;
44366;SDS011;30086;57.660;12.000;2022-12-18T04:33:41;51.70;;;26.58;;
44366;SDS011;30086;57.660;12.000;2022-12-18T04:36:08;66.80;;;37.17;;
44366;SDS011;30086;57.660;12.000;2022-12-18T04:38:34;61.08;;;24.20;;
44366;SDS011;30086;57.660;12.000;2022-12-18T04:41:00;56.63;;;19.75;;
44366;SDS011;30086;57.660;12.000;2022-12-18T04:43:26;63.30;;;22.65;;
44366;SDS011;30086;57.660;12.000;2022-12-18T04:45:52;52.20;;;27.85;;
44366;SDS011;30086;57.660;12.000;2022-12-18T04:48:18;53.38;;;47.15;;
44366;SDS011;30086;57.660;12.000;2022-12-18T04:50:46;61.33;;;32.45;;
44366;SDS011;30086;57.660;12.000;2022-12-18T04:53:12;52.20;;;15.95;;
44366;SDS011;30086;57.660;12.000;2022-12-18T04:55:38;61.40;;;37.05;;
44366;SDS011;30086;57.660;12.000;2022-12-18T04:58:04;54.80;;;47.47;;
44366;SDS011;30086;57.660;12.000;2022-12-18T05:00:30;52.33;;;19.92;;
44366;SDS011;30086;57.660;12.000;2022-12-18T05:02:56;44.50;;;14.07;;
44366;SDS011;30086;57.660;12.000;2022-12-18T05:05:22;40.00;;;13.13;;
44366;SDS011;30086;57.660;12.000;2022-12-18T05:07:48;52.03;;;14.60;;
44366;SDS011;30086;57.660;12.000;2022-12-18T05:10:15;33.67;;;8.63;;
44366;SDS011;30086;57.660;12.000;2022-12-18T05:12:41;29.60;;;8.65;;
44366;SDS011;30086;57.660;12.000;2022-12-18T05:15:31;47.55;;;25.77;;
44366;SDS011;30086;57.660;12.000;2022-12-18T05:17:58;46.30;;;17.95;;
44366;SDS011;30086;57.660;12.000;2022-12-18T05:20:24;46.53;;;28.55;;
44366;SDS011;30086;57.660;12.000;2022-12-18T05:22:50;49.95;;;28.73;;
44366;SDS011;30086;57.660;12.000;2022-12-18T05:25:16;44.22;;;20.08;;
44366;SDS011;30086;57.660;12.000;2022-12-18T05:27:43;48.33;;;39.10;;
44366;SDS011;30086;57.660;12.000;2022-12-18T05:30:09;43.72;;;29.50;;
44366;SDS011;30086;57.660;12.000;2022-12-18T05:32:35;78.93;;;71.57;;
44366;SDS011;30086;57.660;12.000;2022-12-18T05:35:01;35.78;;;11.93;;
44366;SDS011;30086;57.660;12.000;2022-12-18T05:37:27;36.10;;;10.43;;
44366;SDS011;30086;57.660;12.000;2022-12-18T05:39:57;81.03;;;73.40;;
44366;SDS011;30086;57.660;12.000;2022-12-18T05:42:23;47.15;;;11.90;;
44366;SDS011;30086;57.660;12.000;2022-12-18T05:44:49;27.60;;;7.57;;
44366;SDS011;30086;57.660;12.000;2022-12-18T05:47:15;35.05;;;14.63;;
44366;SDS011;30086;57.660;12.000;2022-12-18T05:49:41;29.92;;;12.75;;
44366;SDS011;30086;57.660;12.000;2022-12-18T05:52:09;32.33;;;8.75;;
44366;SDS011;30086;57.660;12.000;2022-12-18T05:54:35;17.90;;;6.15;;
44366;SDS011;30086;57.660;12.000;2022-12-18T05:57:01;31.90;;;19.40;;
44366;SDS011;30086;57.660;12.000;2022-12-18T05:59:28;30.73;;;17.20;;
44366;SDS011;30086;57.660;12.000;2022-12-18T06:01:54;36.72;;;13.93;;
44366;SDS011;30086;57.660;12.000;2022-12-18T06:04:20;28.23;;;9.70;;
44366;SDS011;30086;57.660;12.000;2022-12-18T06:06:46;30.27;;;7.18;;
44366;SDS011;30086;57.660;12.000;2022-12-18T06:09:12;36.60;;;10.90;;
44366;SDS011;30086;57.660;12.000;2022-12-18T06:11:38;28.65;;;9.52;;
44366;SDS011;30086;57.660;12.000;2022-12-18T06:14:05;34.47;;;17.38;;
44366;SDS011;30086;57.660;12.000;2022-12-18T06:16:31;34.75;;;9.70;;
44366;SDS011;30086;57.660;12.000;2022-12-18T06:19:02;14.95;;;5.03;;
44366;SDS011;30086;57.660;12.000;2022-12-18T06:21:28;35.95;;;9.18;;
44366;SDS011;30086;57.660;12.000;2022-12-18T06:23:54;33.28;;;9.45;;
44366;SDS011;30086;57.660;12.000;2022-12-18T06:26:21;37.17;;;20.67;;
44366;SDS011;30086;57.660;12.000;2022-12-18T06:28:47;33.00;;;9.65;;
44366;SDS011;30086;57.660;12.000;2022-12-18T06:31:13;33.60;;;19.00;;
44366;SDS011;30086;57.660;12.000;2022-12-18T06:33:39;30.35;;;11.25;;
44366;SDS011;30086;57.660;12.000;2022-12-18T06:36:07;27.55;;;8.75;;
44366;SDS011;30086;57.660;12.000;2022-12-18T06:38:34;46.67;;;42.13;;
44366;SDS011;30086;57.660;12.000;2022-12-18T06:41:00;23.70;;;6.80;;
44366;SDS011;30086;57.660;12.000;2022-12-18T06:43:26;19.15;;;7.47;;
44366;SDS011;30086;57.660;12.000;2022-12-18T06:45:57;24.90;;;7.05;;
44366;SDS011;30086;57.660;12.000;2022-12-18T06:48:23;31.35;;;22.33;;
44366;SDS011;30086;57.660;12.000;2022-12-18T06:50:49;33.42;;;11.55;;
44366;SDS011;30086;57.660;12.000;2022-12-18T06:53:15;36.35;;;8.90;;
44366;SDS011;30086;57.660;12.000;2022-12-18T06:55:41;24.70;;;9.68;;
44366;SDS011;30086;57.660;12.000;2022-12-18T06:58:07;8.75;;;3.80;;
44366;SDS011;30086;57.660;12.000;2022-12-18T07:00:33;24.15;;;11.20;;
44366;SDS011;30086;57.660;12.000;2022-12-18T07:02:59;47.17;;;41.97;;
44366;SDS011;30086;57.660;12.000;2022-12-18T07:05:25;22.95;;;8.98;;
44366;SDS011;30086;57.660;12.000;2022-12-18T07:07:51;72.07;;;66.30;;
44366;SDS011;30086;57.660;12.000;2022-12-18T07:10:22;29.95;;;17.23;;
44366;SDS011;30086;57.660;12.000;2022-12-18T07:12:48;27.67;;;8.18;;
44366;SDS011;30086;57.660;12.000;2022-12-18T07:15:15;26.17;;;20.55;;
44366;SDS011;30086;57.660;12.000;2022-12-18T07:17:41;16.30;;;4.55;;
44366;SDS011;30086;57.660;12.000;2022-12-18T07:20:07;52.25;;;47.28;;
44366;SDS011;30086;57.660;12.000;2022-12-18T07:22:33;26.35;;;12.23;;
44366;SDS011;30086;57.660;12.000;2022-12-18T07:24:59;24.88;;;16.17;;
44366;SDS011;30086;57.660;12.000;2022-12-18T07:27:25;22.15;;;6.20;;
44366;SDS011;30086;57.660;12.000;2022-12-18T07:29:53;26.75;;;6.00;;
44366;SDS011;30086;57.660;12.000;2022-12-18T07:32:20;24.30;;;7.32;;
44366;SDS011;30086;57.660;12.000;2022-12-18T07:34:46;29.00;;;17.08;;
44366;SDS011;30086;57.660;12.000;2022-12-18T07:37:12;17.27;;;5.60;;
44366;SDS011;30086;57.660;12.000;2022-12-18T07:39:38;43.03;;;7.22;;
44366;SDS011;30086;57.660;12.000;2022-12-18T07:42:04;12.07;;;4.35;;
44366;SDS011;30086;57.660;12.000;2022-12-18T07:44:48;25.25;;;8.38;;
44366;SDS011;30086;57.660;12.000;2022-12-18T07:47:14;35.00;;;7.78;;
44366;SDS011;30086;57.660;12.000;2022-12-18T07:49:40;26.38;;;7.50;;
44366;SDS011;30086;57.660;12.000;2022-12-18T07:52:08;15.45;;;5.65;;
44366;SDS011;30086;57.660;12.000;2022-12-18T07:54:37;24.58;;;19.70;;
44366;SDS011;30086;57.660;12.000;2022-12-18T07:57:03;24.83;;;5.32;;
44366;SDS011;30086;57.660;12.000;2022-12-18T07:59:29;18.55;;;6.93;;
44366;SDS011;30086;57.660;12.000;2022-12-18T08:01:55;24.13;;;6.63;;
44366;SDS011;30086;57.660;12.000;2022-12-18T08:04:21;30.92;;;13.80;;
44366;SDS011;30086;57.660;12.000;2022-12-18T08:06:47;64.82;;;59.78;;
44366;SDS011;30086;57.660;12.000;2022-12-18T08:09:13;50.28;;;45.40;;
44366;SDS011;30086;57.660;12.000;2022-12-18T08:11:39;127.82;;;118.60;;
44366;SDS011;30086;57.660;12.000;2022-12-18T08:14:05;13.25;;;3.53;;
44366;SDS011;30086;57.660;12.000;2022-12-18T08:16:32;20.83;;;8.55;;
44366;SDS011;30086;57.660;12.000;2022-12-18T08:18:58;20.85;;;7.45;;
44366;SDS011;30086;57.660;12.000;2022-12-18T08:21:25;13.93;;;4.43;;
44366;SDS011;30086;57.660;12.000;2022-12-18T08:23:52;17.70;;;6.95;;
44366;SDS011;30086;57.660;12.000;2022-12-18T08:26:19;21.38;;;5.97;;
44366;SDS011;30086;57.660;12.000;2022-12-18T08:28:45;24.17;;;6.00;;
44366;SDS011;30086;57.660;12.000;2022-12-18T08:31:11;31.25;;;9.27;;
44366;SDS011;30086;57.660;12.000;2022-12-18T08:33:38;31.13;;;27.75;;
44366;SDS011;30086;57.660;12.000;2022-12-18T08:36:04;27.77;;;15.82;;
44366;SDS011;30086;57.660;12.000;2022-12-18T08:38:33;29.52;;;11.15;;
44366;SDS011;30086;57.660;12.000;2022-12-18T08:41:00;28.63;;;8.63;;
44366;SDS011;30086;57.660;12.000;2022-12-18T08:43:26;28.80;;;8.90;;
44366;SDS011;30086;57.660;12.000;2022-12-18T08:46:27;25.35;;;11.00;;
44366;SDS011;30086;57.660;12.000;2022-12-18T08:48:55;22.10;;;6.68;;
44366;SDS011;30086;57.660;12.000;2022-12-18T08:51:22;27.52;;;6.65;;
44366;SDS011;30086;57.660;12.000;2022-12-18T08:53:48;28.67;;;8.57;;
44366;SDS011;30086;57.660;12.000;2022-12-18T08:56:14;35.58;;;17.17;;
44366;SDS011;30086;57.660;12.000;2022-12-18T08:58:40;28.65;;;20.27;;
44366;SDS011;30086;57.660;12.000;2022-12-18T09:01:07;29.95;;;8.65;;
44366;SDS011;30086;57.660;12.000;2022-12-18T09:03:34;28.55;;;9.45;;
44366;SDS011;30086;57.660;12.000;2022-12-18T09:06:00;24.60;;;5.63;;
44366;SDS011;30086;57.660;12.000;2022-12-18T09:08:26;24.38;;;7.88;;
44366;SDS011;30086;57.660;12.000;2022-12-18T09:10:55;29.08;;;8.43;;
44366;SDS011;30086;57.660;12.000;2022-12-18T09:13:21;24.02;;;10.27;;
44366;SDS011;30086;57.660;12.000;2022-12-18T09:15:49;32.72;;;7.75;;
44366;SDS011;30086;57.660;12.000;2022-12-18T09:18:16;27.60;;;8.05;;
44366;SDS011;30086;57.660;12.000;2022-12-18T09:20:42;26.08;;;16.45;;
44366;SDS011;30086;57.660;12.000;2022-12-18T09:23:09;24.70;;;7.25;;
44366;SDS011;30086;57.660;12.000;2022-12-18T09:25:35;25.15;;;10.68;;
44366;SDS011;30086;57.660;12.000;2022-12-18T09:30:40;21.55;;;10.30;;
44366;SDS011;30086;57.660;12.000;2022-12-18T09:33:06;14.25;;;6.10;;
44366;SDS011;30086;57.660;12.000;2022-12-18T09:35:32;25.67;;;8.75;;
44366;SDS011;30086;57.660;12.000;2022-12-18T09:38:01;23.90;;;6.57;;
44366;SDS011;30086;57.660;12.000;2022-12-18T09:40:28;20.17;;;4.32;;
44366;SDS011;30086;57.660;12.000;2022-12-18T09:42:59;24.83;;;14.32;;
44366;SDS011;30086;57.660;12.000;2022-12-18T09:45:26;30.98;;;11.32;;
44366;SDS011;30086;57.660;12.000;2022-12-18T09:47:53;30.27;;;12.25;;
44366;SDS011;30086;57.660;12.000;2022-12-18T09:50:28;13.45;;;4.13;;
44366;SDS011;30086;57.660;12.000;2022-12-18T09:52:56;21.08;;;8.20;;
44366;SDS011;30086;57.660;12.000;2022-12-18T09:57:51;15.75;;;5.28;;
44366;SDS011;30086;57.660;12.000;2022-12-18T10:00:19;23.08;;;9.23;;
44366;SDS011;30086;57.660;12.000;2022-12-18T10:02:46;14.57;;;3.55;;
44366;SDS011;30086;57.660;12.000;2022-12-18T10:05:13;15.40;;;4.38;;
44366;SDS011;30086;57.660;12.000;2022-12-18T10:10:07;19.83;;;6.43;;
44366;SDS011;30086;57.660;12.000;2022-12-18T10:15:08;31.88;;;19.00;;
44366;SDS011;30086;57.660;12.000;2022-12-18T10:17:48;24.38;;;12.85;;
44366;SDS011;30086;57.660;12.000;2022-12-18T10:22:57;20.15;;;10.98;;
44366;SDS011;30086;57.660;12.000;2022-12-18T10:27:56;28.50;;;16.05;;
44366;SDS011;30086;57.660;12.000;2022-12-18T10:30:24;14.85;;;5.78;;
44366;SDS011;30086;57.660;12.000;2022-12-18T10:32:53;19.00;;;6.72;;
44366;SDS011;30086;57.660;12.000;2022-12-18T10:35:24;17.65;;;5.80;;
44366;SDS011;30086;57.660;12.000;2022-12-18T10:38:05;26.77;;;13.30;;
44366;SDS011;30086;57.660;12.000;2022-12-18T10:40:32;22.50;;;11.55;;
44366;SDS011;30086;57.660;12.000;2022-12-18T10:43:05;25.52;;;15.32;;
44366;SDS011;30086;57.660;12.000;2022-12-18T10:45:31;12.70;;;2.65;;
44366;SDS011;30086;57.660;12.000;2022-12-18T10:47:57;6.45;;;2.30;;
44366;SDS011;30086;57.660;12.000;2022-12-18T10:50:26;24.50;;;5.05;;
44366;SDS011;30086;57.660;12.000;2022-12-18T10:52:57;14.43;;;4.10;;
44366;SDS011;30086;57.660;12.000;2022-12-18T10:55:24;17.17;;;6.57;;
44366;SDS011;30086;57.660;12.000;2022-12-18T10:57:53;22.83;;;7.75;;
44366;SDS011;30086;57.660;12.000;2022-12-18T11:00:27;22.05;;;6.07;;
44366;SDS011;30086;57.660;12.000;2022-12-18T11:02:53;16.15;;;4.93;;
44366;SDS011;30086;57.660;12.000;2022-12-18T11:05:30;23.48;;;16.10;;
44366;SDS011;30086;57.660;12.000;2022-12-18T11:07:57;22.58;;;5.88;;
44366;SDS011;30086;57.660;12.000;2022-12-18T11:10:31;42.75;;;39.10;;
44366;SDS011;30086;57.660;12.000;2022-12-18T11:13:09;14.60;;;6.37;;
44366;SDS011;30086;57.660;12.000;2022-12-18T11:15:35;18.90;;;4.05;;
44366;SDS011;30086;57.660;12.000;2022-12-18T11:18:01;45.50;;;41.35;;
44366;SDS011;30086;57.660;12.000;2022-12-18T11:20:31;23.98;;;5.60;;
44366;SDS011;30086;57.660;12.000;2022-12-18T11:23:05;21.17;;;8.25;;
44366;SDS011;30086;57.660;12.000;2022-12-18T11:25:37;27.48;;;24.52;;
44366;SDS011;30086;57.660;12.000;2022-12-18T11:28:05;35.45;;;25.13;;
44366;SDS011;30086;57.660;12.000;2022-12-18T11:30:51;28.60;;;11.73;;
44366;SDS011;30086;57.660;12.000;2022-12-18T11:33:34;18.48;;;7.75;;
44366;SDS011;30086;57.660;12.000;2022-12-18T11:36:02;28.75;;;6.43;;
44366;SDS011;30086;57.660;12.000;2022-12-18T11:38:35;18.98;;;6.63;;
44366;SDS011;30086;57.660;12.000;2022-12-18T11:41:15;24.02;;;10.85;;
44366;SDS011;30086;57.660;12.000;2022-12-18T11:43:55;29.70;;;17.67;;
44366;SDS011;30086;57.660;12.000;2022-12-18T11:46:26;62.70;;;57.30;;
44366;SDS011;30086;57.660;12.000;2022-12-18T11:49:07;34.85;;;10.07;;
44366;SDS011;30086;57.660;12.000;2022-12-18T11:51:44;30.38;;;8.00;;
44366;SDS011;30086;57.660;12.000;2022-12-18T11:54:13;31.08;;;7.47;;
44366;SDS011;30086;57.660;12.000;2022-12-18T11:56:49;39.92;;;20.67;;
44366;SDS011;30086;57.660;12.000;2022-12-18T12:01:52;31.05;;;17.35;;
44366;SDS011;30086;57.660;12.000;2022-12-18T12:15:13;34.53;;;21.88;;
44366;SDS011;30086;57.660;12.000;2022-12-18T12:18:05;26.33;;;10.25;;
44366;SDS011;30086;57.660;12.000;2022-12-18T12:23:15;26.20;;;22.00;;
44366;SDS011;30086;57.660;12.000;2022-12-18T12:34:01;14.30;;;5.95;;
44366;SDS011;30086;57.660;12.000;2022-12-18T12:39:01;16.00;;;4.97;;
44366;SDS011;30086;57.660;12.000;2022-12-18T12:41:30;24.67;;;11.63;;
44366;SDS011;30086;57.660;12.000;2022-12-18T12:44:18;27.73;;;16.85;;
44366;SDS011;30086;57.660;12.000;2022-12-18T12:46:47;22.15;;;4.88;;
44366;SDS011;30086;57.660;12.000;2022-12-18T12:49:15;15.02;;;5.70;;
44366;SDS011;30086;57.660;12.000;2022-12-18T12:51:45;21.23;;;6.47;;
44366;SDS011;30086;57.660;12.000;2022-12-18T12:54:21;29.63;;;6.97;;
44366;SDS011;30086;57.660;12.000;2022-12-18T13:04:36;19.35;;;6.68;;
44366;SDS011;30086;57.660;12.000;2022-12-18T13:12:33;16.00;;;5.82;;
44366;SDS011;30086;57.660;12.000;2022-12-18T13:15:23;19.45;;;4.63;;
44366;SDS011;30086;57.660;12.000;2022-12-18T13:18:02;15.95;;;3.88;;
44366;SDS011;30086;57.660;12.000;2022-12-18T13:20:45;14.15;;;4.15;;
44366;SDS011;30086;57.660;12.000;2022-12-18T13:25:51;16.25;;;4.72;;
44366;SDS011;30086;57.660;12.000;2022-12-18T13:28:49;15.13;;;3.10;;
44366;SDS011;30086;57.660;12.000;2022-12-18T13:36:55;15.68;;;2.95;;
44366;SDS011;30086;57.660;12.000;2022-12-18T13:39:23;8.20;;;2.72;;
44366;SDS011;30086;57.660;12.000;2022-12-18T13:41:54;16.85;;;3.15;;
44366;SDS011;30086;57.660;12.000;2022-12-18T13:44:55;12.77;;;8.57;;
44366;SDS011;30086;57.660;12.000;2022-12-18T13:47:26;12.88;;;2.83;;
44366;SDS011;30086;57.660;12.000;2022-12-18T13:49:53;17.48;;;4.20;;
44366;SDS011;30086;57.660;12.000;2022-12-18T13:52:21;21.52;;;4.22;;
44366;SDS011;30086;57.660;12.000;2022-12-18T13:54:50;20.95;;;4.10;;
44366;SDS011;30086;57.660;12.000;2022-12-18T13:57:33;20.67;;;15.18;;
44366;SDS011;30086;57.660;12.000;2022-12-18T14:00:17;12.07;;;3.80;;
44366;SDS011;30086;57.660;12.000;2022-12-18T14:02:48;25.10;;;4.97;;
44366;SDS011;30086;57.660;12.000;2022-12-18T14:05:48;25.58;;;4.50;;
44366;SDS011;30086;57.660;12.000;2022-12-18T14:08:08;18.42;;;3.75;;
44366;SDS011;30086;57.660;12.000;2022-12-18T14:10:35;24.73;;;9.95;;
44366;SDS011;30086;57.660;12.000;2022-12-18T14:13:06;20.95;;;5.20;;
44366;SDS011;30086;57.660;12.000;2022-12-18T14:15:33;12.88;;;3.63;;
44366;SDS011;30086;57.660;12.000;2022-12-18T14:20:28;13.52;;;4.30;;
44366;SDS011;30086;57.660;12.000;2022-12-18T14:22:56;18.63;;;6.15;;
44366;SDS011;30086;57.660;12.000;2022-12-18T14:25:26;24.88;;;16.42;;
44366;SDS011;30086;57.660;12.000;2022-12-18T14:28:04;16.20;;;5.47;;
44366;SDS011;30086;57.660;12.000;2022-12-18T14:30:40;28.92;;;25.05;;
44366;SDS011;30086;57.660;12.000;2022-12-18T14:35:58;23.73;;;6.30;;
44366;SDS011;30086;57.660;12.000;2022-12-18T14:41:02;27.08;;;11.82;;
44366;SDS011;30086;57.660;12.000;2022-12-18T14:43:31;21.63;;;7.30;;
44366;SDS011;30086;57.660;12.000;2022-12-18T14:46:00;28.95;;;10.57;;
44366;SDS011;30086;57.660;12.000;2022-12-18T14:48:37;32.25;;;9.48;;
44366;SDS011;30086;57.660;12.000;2022-12-18T14:55:59;35.25;;;13.07;;
44366;SDS011;30086;57.660;12.000;2022-12-18T14:58:27;40.05;;;14.20;;
44366;SDS011;30086;57.660;12.000;2022-12-18T15:00:53;41.33;;;14.93;;
44366;SDS011;30086;57.660;12.000;2022-12-18T15:03:20;42.72;;;17.98;;
44366;SDS011;30086;57.660;12.000;2022-12-18T15:05:46;43.15;;;16.58;;
44366;SDS011;30086;57.660;12.000;2022-12-18T15:08:29;51.47;;;17.33;;
44366;SDS011;30086;57.660;12.000;2022-12-18T15:10:56;47.33;;;18.60;;
44366;SDS011;30086;57.660;12.000;2022-12-18T15:13:23;53.72;;;16.20;;
44366;SDS011;30086;57.660;12.000;2022-12-18T15:15:51;60.80;;;24.95;;
44366;SDS011;30086;57.660;12.000;2022-12-18T15:18:20;63.25;;;20.48;;
44366;SDS011;30086;57.660;12.000;2022-12-18T15:20:51;67.15;;;20.80;;
44366;SDS011;30086;57.660;12.000;2022-12-18T15:25:57;82.25;;;24.02;;
44366;SDS011;30086;57.660;12.000;2022-12-18T15:31:00;88.40;;;26.48;;
44366;SDS011;30086;57.660;12.000;2022-12-18T15:33:27;88.40;;;33.30;;
44366;SDS011;30086;57.660;12.000;2022-12-18T15:35:57;100.45;;;28.38;;
44366;SDS011;30086;57.660;12.000;2022-12-18T15:38:24;105.53;;;39.22;;
44366;SDS011;30086;57.660;12.000;2022-12-18T15:40:50;114.60;;;63.88;;
44366;SDS011;30086;57.660;12.000;2022-12-18T15:43:16;123.80;;;59.90;;
44366;SDS011;30086;57.660;12.000;2022-12-18T15:46:18;119.60;;;42.53;;
44366;SDS011;30086;57.660;12.000;2022-12-18T15:48:56;125.00;;;44.05;;
44366;SDS011;30086;57.660;12.000;2022-12-18T15:51:24;120.97;;;42.03;;
44366;SDS011;30086;57.660;12.000;2022-12-18T15:53:56;97.03;;;38.97;;
44366;SDS011;30086;57.660;12.000;2022-12-18T15:56:23;96.95;;;26.55;;
44366;SDS011;30086;57.660;12.000;2022-12-18T15:59:15;71.57;;;22.65;;
44366;SDS011;30086;57.660;12.000;2022-12-18T16:01:42;100.10;;;32.08;;
44366;SDS011;30086;57.660;12.000;2022-12-18T16:04:10;118.45;;;33.58;;
44366;SDS011;30086;57.660;12.000;2022-12-18T16:06:37;95.63;;;30.13;;